Time;durP1;ratioP1;P1;durP2;ratioP2;P2;SDS_P1;SDS_P2;PMS_P1;PMS_P2;Temp;Humidity;BMP_temperature;BMP_pressure;BME280_temperature;BME280_humidity;BME280_pressure;Samples;Min_cycle;Max_cycle;Signal;HPM_P1;HPM_P2
2023/08/24 00:00:42;;;;;;;7.70;3.65;;;16.80;99.90;;;;;;5021500;28;20072;-68
2023/08/24 00:03:08;;;;;;;6.53;3.65;;;16.70;99.90;;;;;;5028172;28;20038;-68
2023/08/24 00:05:36;;;;;;;7.60;3.63;;;16.70;99.90;;;;;;5018680;28;20029;-68
2023/08/24 00:08:04;;;;;;;8.52;3.65;;;16.70;99.90;;;;;;5012323;28;20053;-68
2023/08/24 00:10:30;;;;;;;5.82;4.05;;;16.70;99.90;;;;;;5031287;28;20042;-68
2023/08/24 00:12:56;;;;;;;4.88;3.70;;;16.60;99.90;;;;;;5027763;28;20045;-68
2023/08/24 00:15:21;;;;;;;7.05;4.13;;;16.60;99.90;;;;;;5029945;28;20036;-68
2023/08/24 00:17:47;;;;;;;5.95;3.67;;;16.60;99.90;;;;;;5043174;28;20025;-68
2023/08/24 00:20:13;;;;;;;4.90;3.75;;;16.60;99.90;;;;;;5027347;28;20033;-68
2023/08/24 00:22:39;;;;;;;9.05;4.18;;;16.50;99.90;;;;;;5013220;28;20389;-69
2023/08/24 00:25:07;;;;;;;5.82;3.88;;;16.40;99.90;;;;;;5034926;28;20071;-68
2023/08/24 00:27:33;;;;;;;6.05;3.30;;;16.30;99.90;;;;;;5017416;28;20053;-68
2023/08/24 00:29:59;;;;;;;7.80;3.33;;;16.20;99.90;;;;;;5011919;28;20046;-68
2023/08/24 00:32:24;;;;;;;6.22;3.88;;;16.20;99.90;;;;;;5029440;28;20072;-68
2023/08/24 00:34:50;;;;;;;4.80;3.75;;;16.10;99.90;;;;;;5017165;28;20129;-68
2023/08/24 00:37:15;;;;;;;9.45;3.75;;;16.10;99.90;;;;;;5013523;28;20033;-68
2023/08/24 00:39:41;;;;;;;4.15;3.38;;;16.10;99.90;;;;;;5042222;28;20036;-68
2023/08/24 00:42:07;;;;;;;6.22;4.43;;;16.10;99.90;;;;;;5033407;28;20456;-68
2023/08/24 00:44:33;;;;;;;6.30;5.00;;;16.00;99.90;;;;;;5031507;28;20034;-68
2023/08/24 00:46:59;;;;;;;8.07;5.30;;;16.10;99.90;;;;;;5002433;28;20416;-68
2023/08/24 00:49:26;;;;;;;6.25;4.65;;;16.00;99.90;;;;;;5024977;28;20091;-68
2023/08/24 00:51:52;;;;;;;8.48;4.97;;;16.00;99.90;;;;;;5017096;28;20041;-68
2023/08/24 00:54:18;;;;;;;7.65;4.82;;;16.00;99.90;;;;;;5001431;28;20056;-68
2023/08/24 00:56:44;;;;;;;7.43;5.53;;;16.00;99.90;;;;;;5013528;28;20072;-68
2023/08/24 00:59:10;;;;;;;7.20;5.25;;;16.10;99.90;;;;;;5042213;28;20488;-68
2023/08/24 01:01:35;;;;;;;8.60;5.50;;;16.10;99.90;;;;;;5034783;28;20037;-68
2023/08/24 01:04:02;;;;;;;9.02;6.07;;;16.10;99.90;;;;;;5003617;28;20092;-68
2023/08/24 01:06:28;;;;;;;8.52;5.40;;;16.10;99.90;;;;;;5028733;28;20104;-68
2023/08/24 01:08:54;;;;;;;9.82;4.50;;;16.10;99.90;;;;;;5052356;28;20611;-68
2023/08/24 01:11:38;;;;;;;6.40;4.40;;;16.00;99.90;;;;;;5036597;28;20033;-68
2023/08/24 01:14:30;;;;;;;7.72;5.15;;;15.90;99.90;;;;;;5024079;28;20034;-68
2023/08/24 01:16:58;;;;;;;8.43;4.88;;;15.90;99.90;;;;;;5008394;28;20427;-68
2023/08/24 01:19:42;;;;;;;5.32;4.40;;;15.80;99.90;;;;;;5021679;28;20454;-68
2023/08/24 01:22:32;;;;;;;7.03;4.30;;;15.80;99.90;;;;;;5025707;28;20071;-68
2023/08/24 01:25:10;;;;;;;8.50;5.22;;;15.80;99.90;;;;;;5017970;28;20037;-68
2023/08/24 01:27:36;;;;;;;7.57;5.03;;;15.90;99.90;;;;;;5008353;28;20038;-68
2023/08/24 01:30:03;;;;;;;9.90;6.15;;;15.90;99.90;;;;;;5033272;28;20037;-68
2023/08/24 01:32:33;;;;;;;10.30;6.53;;;16.00;99.90;;;;;;5033936;28;20099;-68
2023/08/24 01:35:08;;;;;;;9.88;6.53;;;16.00;99.90;;;;;;5028635;28;20113;-68
2023/08/24 01:37:38;;;;;;;11.65;7.22;;;16.00;99.90;;;;;;5068998;22;20092;-68
2023/08/24 01:40:08;;;;;;;12.25;7.68;;;16.10;99.90;;;;;;5015600;28;20053;-68
2023/08/24 01:42:38;;;;;;;10.00;7.45;;;16.20;99.90;;;;;;5032880;28;20037;-68
2023/08/24 01:45:08;;;;;;;10.15;8.25;;;16.20;99.90;;;;;;5014661;28;20044;-68
2023/08/24 01:47:35;;;;;;;11.13;7.80;;;16.20;99.90;;;;;;5036989;28;20044;-67
2023/08/24 01:50:02;;;;;;;11.82;8.10;;;16.30;99.90;;;;;;5015605;28;20053;-68
2023/08/24 01:52:28;;;;;;;10.63;8.50;;;16.30;99.90;;;;;;5028584;28;20037;-68
2023/08/24 01:54:54;;;;;;;15.45;8.60;;;16.30;99.90;;;;;;5031141;28;20415;-68
2023/08/24 01:57:19;;;;;;;13.68;8.25;;;16.40;99.90;;;;;;5039696;28;20041;-68
2023/08/24 01:59:45;;;;;;;14.70;8.63;;;16.40;99.90;;;;;;5029126;28;20041;-68
2023/08/24 02:02:10;;;;;;;15.32;8.80;;;16.40;99.90;;;;;;5025384;28;20083;-68
2023/08/24 02:04:36;;;;;;;12.15;8.63;;;16.40;99.90;;;;;;5041514;28;20124;-68
2023/08/24 02:07:02;;;;;;;13.45;8.68;;;16.50;99.90;;;;;;5032133;28;20044;-69
2023/08/24 02:09:27;;;;;;;12.43;8.52;;;16.50;99.90;;;;;;5018689;28;20503;-68
2023/08/24 02:11:53;;;;;;;11.20;8.30;;;16.50;99.90;;;;;;5006961;28;20069;-68
2023/08/24 02:14:18;;;;;;;13.50;8.40;;;16.50;99.90;;;;;;5033416;28;20116;-67
2023/08/24 02:16:44;;;;;;;17.30;9.43;;;16.60;99.90;;;;;;5009436;28;20069;-68
2023/08/24 02:19:11;;;;;;;14.30;8.80;;;16.50;99.90;;;;;;5032952;28;20232;-68
2023/08/24 02:21:36;;;;;;;13.23;9.00;;;16.50;99.90;;;;;;5031758;28;20714;-68
2023/08/24 02:24:04;;;;;;;12.38;8.60;;;16.60;99.90;;;;;;5015889;28;20045;-68
2023/08/24 02:26:29;;;;;;;15.90;8.88;;;16.60;99.90;;;;;;5023232;28;20048;-67
2023/08/24 02:28:57;;;;;;;17.40;9.15;;;16.60;99.90;;;;;;5036190;28;20034;-67
2023/08/24 02:31:22;;;;;;;12.02;8.73;;;16.60;99.90;;;;;;5033124;28;20041;-68
2023/08/24 02:33:48;;;;;;;15.70;9.55;;;16.60;99.90;;;;;;5019664;28;20050;-68
2023/08/24 02:36:14;;;;;;;11.60;8.05;;;16.60;99.90;;;;;;5033603;28;20450;-68
2023/08/24 02:38:40;;;;;;;15.55;9.45;;;16.50;99.90;;;;;;5014623;28;20034;-68
2023/08/24 02:41:07;;;;;;;13.32;9.45;;;16.50;99.90;;;;;;5033074;28;20547;-67
2023/08/24 02:43:33;;;;;;;15.45;9.55;;;16.50;99.90;;;;;;5026107;28;20099;-68
2023/08/24 02:46:09;;;;;;;17.58;9.68;;;16.60;99.90;;;;;;5023997;28;20081;-68
2023/08/24 02:48:35;;;;;;;13.40;9.50;;;16.60;99.90;;;;;;5032278;28;20034;-68
2023/08/24 02:51:03;;;;;;;15.73;9.43;;;16.60;99.90;;;;;;5025088;28;20113;-68
2023/08/24 02:53:29;;;;;;;18.60;9.73;;;16.60;99.90;;;;;;5013444;28;20496;-68
2023/08/24 02:55:56;;;;;;;13.32;9.02;;;16.60;99.90;;;;;;5032169;28;20076;-68
2023/08/24 02:58:22;;;;;;;15.40;9.98;;;16.50;99.90;;;;;;5032467;28;20047;-68
2023/08/24 03:00:47;;;;;;;15.20;9.77;;;16.50;99.90;;;;;;5024159;28;20071;-68
2023/08/24 03:03:15;;;;;;;18.65;9.30;;;16.50;99.90;;;;;;5031486;28;20513;-68
2023/08/24 03:05:41;;;;;;;12.30;8.63;;;16.50;99.90;;;;;;5031721;28;20506;-67
2023/08/24 03:08:06;;;;;;;15.15;9.45;;;16.50;99.90;;;;;;5023430;28;20034;-68
2023/08/24 03:10:35;;;;;;;13.05;9.85;;;16.50;99.90;;;;;;5027735;28;20554;-68
2023/08/24 03:13:01;;;;;;;13.82;10.07;;;16.50;99.90;;;;;;5051324;28;20076;-68
2023/08/24 03:15:26;;;;;;;15.93;10.30;;;16.50;99.90;;;;;;5002708;28;20508;-68
2023/08/24 03:17:52;;;;;;;13.18;9.25;;;16.40;99.90;;;;;;5022838;28;20042;-67
2023/08/24 03:20:19;;;;;;;13.90;8.95;;;16.40;99.90;;;;;;5031038;28;20037;-68
2023/08/24 03:22:44;;;;;;;14.27;9.75;;;16.40;99.90;;;;;;5014402;28;20124;-68
2023/08/24 03:25:10;;;;;;;16.60;9.90;;;16.30;99.90;;;;;;4995910;28;20119;-68
2023/08/24 03:27:36;;;;;;;14.55;10.45;;;16.30;99.90;;;;;;5034266;28;20475;-68
2023/08/24 03:30:04;;;;;;;17.00;10.07;;;16.20;99.90;;;;;;5032460;28;20085;-68
2023/08/24 03:32:29;;;;;;;15.35;10.60;;;16.20;99.90;;;;;;5030433;28;20053;-67
2023/08/24 03:35:03;;;;;;;16.55;10.38;;;16.20;99.90;;;;;;5031280;28;20041;-69
2023/08/24 03:37:28;;;;;;;18.45;10.10;;;16.20;99.90;;;;;;5013495;28;20061;-68
2023/08/24 03:39:54;;;;;;;13.20;10.55;;;16.10;99.90;;;;;;5030366;28;20037;-68
2023/08/24 03:42:19;;;;;;;16.70;10.73;;;16.10;99.90;;;;;;5023517;28;20038;-68
2023/08/24 03:44:45;;;;;;;14.88;9.38;;;16.10;99.90;;;;;;5031087;28;20065;-68
2023/08/24 03:47:11;;;;;;;15.93;10.63;;;16.10;99.90;;;;;;5013972;28;20559;-68
2023/08/24 03:49:37;;;;;;;14.48;10.10;;;16.10;99.90;;;;;;5021914;28;20037;-68
2023/08/24 03:52:03;;;;;;;15.25;10.43;;;16.00;99.90;;;;;;5031236;28;20515;-68
2023/08/24 03:54:29;;;;;;;13.15;9.65;;;16.00;99.90;;;;;;5031457;28;20063;-68
2023/08/24 03:56:54;;;;;;;13.63;9.82;;;15.90;99.90;;;;;;5001687;28;20477;-68
2023/08/24 03:59:20;;;;;;;13.90;9.52;;;15.90;99.90;;;;;;5021938;28;20029;-68
2023/08/24 04:01:45;;;;;;;12.70;9.75;;;15.80;99.90;;;;;;5018359;28;20651;-68
2023/08/24 04:04:11;;;;;;;17.65;11.00;;;15.80;99.90;;;;;;5031857;28;20045;-68
2023/08/24 04:06:37;;;;;;;15.82;10.90;;;15.70;99.90;;;;;;5007589;28;20041;-68
2023/08/24 04:09:04;;;;;;;15.82;11.07;;;15.70;99.90;;;;;;5027257;28;20049;-68
2023/08/24 04:11:30;;;;;;;17.38;11.50;;;15.60;99.90;;;;;;5026583;28;20044;-67
2023/08/24 04:13:55;;;;;;;19.38;12.30;;;15.70;99.90;;;;;;5009649;28;20042;-68
2023/08/24 04:16:21;;;;;;;17.88;12.63;;;15.70;99.90;;;;;;5010464;28;20799;-67
2023/08/24 04:18:47;;;;;;;17.00;12.07;;;15.70;99.90;;;;;;5030880;28;20079;-68
2023/08/24 04:21:12;;;;;;;22.33;12.05;;;15.70;99.90;;;;;;5025253;28;20041;-68
2023/08/24 04:23:38;;;;;;;16.75;11.50;;;15.50;99.90;;;;;;5011801;28;20034;-67
2023/08/24 04:26:05;;;;;;;18.35;11.90;;;15.50;99.90;;;;;;5030185;28;20047;-68
2023/08/24 04:28:30;;;;;;;16.65;11.25;;;15.40;99.90;;;;;;5030115;28;20045;-68
2023/08/24 04:30:57;;;;;;;16.25;11.35;;;15.40;99.90;;;;;;5014803;28;20034;-68
2023/08/24 04:33:22;;;;;;;17.17;11.30;;;15.30;99.90;;;;;;5024261;28;20065;-68
2023/08/24 04:35:51;;;;;;;18.30;11.18;;;15.30;99.90;;;;;;5038374;28;20072;-68
2023/08/24 04:38:17;;;;;;;15.20;10.90;;;15.30;99.90;;;;;;5016334;28;20038;-68
2023/08/24 04:40:54;;;;;;;17.23;11.07;;;15.30;99.90;;;;;;5014187;28;21021;-67
2023/08/24 04:43:21;;;;;;;15.77;11.05;;;15.30;99.90;;;;;;5010695;28;20643;-69
2023/08/24 04:45:52;;;;;;;18.98;11.60;;;15.30;99.90;;;;;;5012510;28;20116;-68
2023/08/24 04:48:18;;;;;;;;;;;15.40;99.90;;;;;;4997850;28;20069;-68
2023/08/24 04:50:45;;;;;;;19.90;11.77;;;15.40;99.90;;;;;;5029248;28;19963;-68
2023/08/24 04:53:14;;;;;;;19.15;11.95;;;15.40;99.90;;;;;;5030979;28;20037;-68
2023/08/24 04:55:40;;;;;;;17.58;11.32;;;15.40;99.90;;;;;;5025140;28;20034;-68
2023/08/24 04:58:08;;;;;;;20.80;11.43;;;15.50;99.90;;;;;;5029452;28;20044;-68
2023/08/24 05:00:34;;;;;;;18.45;11.77;;;15.60;99.90;;;;;;5008553;28;20090;-68
2023/08/24 05:03:01;;;;;;;19.90;10.95;;;15.60;99.90;;;;;;5028513;28;20415;-68
2023/08/24 05:05:29;;;;;;;18.83;11.68;;;15.60;99.90;;;;;;5023671;28;20060;-68
2023/08/24 05:07:55;;;;;;;19.17;10.68;;;15.70;99.90;;;;;;5009468;28;20392;-68
2023/08/24 05:10:21;;;;;;;16.20;10.02;;;15.70;99.90;;;;;;5033894;28;20029;-68
2023/08/24 05:12:46;;;;;;;17.88;10.60;;;15.70;99.90;;;;;;4999214;28;20045;-68
2023/08/24 05:15:13;;;;;;;17.20;10.35;;;15.70;99.90;;;;;;5025984;28;20034;-67
2023/08/24 05:17:39;;;;;;;14.07;10.05;;;15.80;99.90;;;;;;5033700;28;20041;-67
2023/08/24 05:20:06;;;;;;;14.20;10.30;;;15.80;99.90;;;;;;5012428;28;20077;-67
2023/08/24 05:22:32;;;;;;;14.23;10.07;;;15.90;99.90;;;;;;4998718;28;20038;-68
2023/08/24 05:24:57;;;;;;;18.75;10.40;;;15.90;99.90;;;;;;5031993;28;20041;-68
2023/08/24 05:27:23;;;;;;;14.52;9.65;;;15.90;99.90;;;;;;5034110;28;20491;-67
2023/08/24 05:29:49;;;;;;;12.18;9.40;;;16.00;99.90;;;;;;5022907;28;20034;-68
2023/08/24 05:32:14;;;;;;;16.92;10.20;;;16.00;99.90;;;;;;5031498;28;20422;-68
2023/08/24 05:34:40;;;;;;;14.38;9.18;;;16.00;99.90;;;;;;5029915;28;20063;-67
2023/08/24 05:37:05;;;;;;;22.13;9.90;;;16.10;99.90;;;;;;5018553;28;20033;-68
2023/08/24 05:39:31;;;;;;;17.73;10.38;;;16.20;99.90;;;;;;5010320;28;20041;-68
2023/08/24 05:41:57;;;;;;;18.98;9.68;;;16.20;99.90;;;;;;5033514;28;20048;-68
2023/08/24 05:44:22;;;;;;;18.15;10.32;;;16.20;99.90;;;;;;5022034;28;20044;-68
2023/08/24 05:46:48;;;;;;;15.02;9.82;;;16.30;99.90;;;;;;5011230;28;20087;-68
2023/08/24 05:49:14;;;;;;;18.58;10.35;;;16.40;99.90;;;;;;5015401;28;20045;-68
2023/08/24 05:51:39;;;;;;;16.48;9.48;;;16.40;99.90;;;;;;5026856;28;20055;-68
2023/08/24 05:54:05;;;;;;;17.38;10.20;;;16.50;99.90;;;;;;5023110;28;20080;-68
2023/08/24 05:56:31;;;;;;;14.15;9.50;;;16.50;99.90;;;;;;4990657;28;20080;-68
2023/08/24 05:58:58;;;;;;;13.90;9.35;;;16.60;99.90;;;;;;5007305;28;20466;-68
2023/08/24 06:01:24;;;;;;;15.85;9.63;;;16.60;99.90;;;;;;5033174;28;20045;-68
2023/08/24 06:03:50;;;;;;;13.90;9.55;;;16.70;99.90;;;;;;5017389;28;20092;-68
2023/08/24 06:06:16;;;;;;;13.57;9.43;;;16.80;99.90;;;;;;4999724;28;20080;-68
2023/08/24 06:08:42;;;;;;;14.48;9.20;;;16.80;99.90;;;;;;5034756;28;20073;-68
2023/08/24 06:11:08;;;;;;;17.02;9.43;;;16.90;99.90;;;;;;5022776;28;20025;-68
2023/08/24 06:13:34;;;;;;;15.18;9.57;;;17.00;99.90;;;;;;5014052;28;20445;-69
2023/08/24 06:15:59;;;;;;;15.43;9.32;;;17.10;99.90;;;;;;5032763;28;20050;-68
2023/08/24 06:18:25;;;;;;;16.17;9.02;;;17.20;99.90;;;;;;5033033;28;20041;-69
2023/08/24 06:20:51;;;;;;;20.10;9.75;;;17.30;99.90;;;;;;4998814;28;20084;-69
2023/08/24 06:23:21;;;;;;;15.60;9.52;;;17.40;99.90;;;;;;5026247;28;20041;-67
2023/08/24 06:25:47;;;;;;;14.55;10.05;;;17.50;99.90;;;;;;5002153;28;20091;-68
2023/08/24 06:28:13;;;;;;;18.13;10.10;;;17.50;99.90;;;;;;5001534;28;20036;-68
2023/08/24 06:30:39;;;;;;;16.08;10.52;;;17.60;99.90;;;;;;5029860;28;20515;-69
2023/08/24 06:33:06;;;;;;;17.88;10.95;;;17.60;99.90;;;;;;5013506;28;20041;-69
2023/08/24 06:35:35;;;;;;;16.27;10.88;;;17.70;99.90;;;;;;4996073;28;20042;-69
2023/08/24 06:38:02;;;;;;;22.88;11.68;;;17.70;99.90;;;;;;5003085;28;20049;-68
2023/08/24 06:40:28;;;;;;;17.67;11.68;;;17.80;99.90;;;;;;5026286;28;20037;-68
2023/08/24 06:42:54;;;;;;;20.40;12.60;;;17.90;99.90;;;;;;5047849;28;20037;-69
2023/08/24 06:45:20;;;;;;;19.60;12.70;;;17.90;99.90;;;;;;5021188;28;20082;-69
2023/08/24 06:47:45;;;;;;;19.67;12.60;;;18.00;99.90;;;;;;5030841;28;20040;-69
2023/08/24 06:50:12;;;;;;;22.02;13.57;;;18.00;99.90;;;;;;5031653;28;20507;-69
2023/08/24 06:52:37;;;;;;;24.55;14.10;;;18.10;99.90;;;;;;5013931;28;20048;-68
2023/08/24 06:55:04;;;;;;;23.25;13.85;;;18.20;99.90;;;;;;5022586;28;20037;-68
2023/08/24 06:57:30;;;;;;;26.10;14.38;;;18.30;99.90;;;;;;4998878;28;20108;-69
2023/08/24 06:59:56;;;;;;;22.98;14.85;;;18.40;99.90;;;;;;5024432;28;20120;-69
2023/08/24 07:02:22;;;;;;;20.83;14.32;;;18.50;99.90;;;;;;5012681;28;20120;-69
2023/08/24 07:04:48;;;;;;;23.60;15.18;;;18.60;99.90;;;;;;5020859;28;20044;-69
2023/08/24 07:07:14;;;;;;;30.08;16.52;;;18.60;99.90;;;;;;5013675;28;20037;-69
2023/08/24 07:09:39;;;;;;;20.90;15.05;;;18.80;99.90;;;;;;5029581;28;20487;-71
2023/08/24 07:12:07;;;;;;;25.35;15.73;;;18.80;99.90;;;;;;5025978;28;20026;-71
2023/08/24 07:14:38;;;;;;;24.88;15.48;;;18.90;99.90;;;;;;5008866;28;20043;-71
2023/08/24 07:17:05;;;;;;;20.60;14.80;;;19.00;99.90;;;;;;5006019;28;20438;-71
2023/08/24 07:19:31;;;;;;;24.38;14.48;;;19.00;99.90;;;;;;5018751;28;20061;-71
2023/08/24 07:21:57;;;;;;;23.52;14.80;;;19.10;99.90;;;;;;5018435;28;20447;-71
2023/08/24 07:24:26;;;;;;;23.58;14.95;;;19.10;99.90;;;;;;5004950;28;20479;-71
2023/08/24 07:26:52;;;;;;;24.75;14.38;;;19.20;99.90;;;;;;5006075;28;20040;-71
2023/08/24 07:29:19;;;;;;;20.98;14.07;;;19.30;99.90;;;;;;5003264;28;20044;-71
2023/08/24 07:31:45;;;;;;;21.00;14.45;;;19.30;99.90;;;;;;5000093;28;20134;-71
2023/08/24 07:34:10;;;;;;;23.98;14.60;;;19.40;99.90;;;;;;4991747;28;20041;-71
2023/08/24 07:36:36;;;;;;;22.35;15.23;;;19.40;99.90;;;;;;4980609;28;1082590;-72
2023/08/24 07:39:02;;;;;;;23.23;15.80;;;19.50;99.90;;;;;;5001018;28;20064;-71
2023/08/24 07:41:27;;;;;;;22.48;14.20;;;19.60;99.90;;;;;;5018818;28;20045;-72
2023/08/24 07:43:53;;;;;;;20.27;13.82;;;19.70;99.90;;;;;;5012464;28;20046;-71
2023/08/24 07:46:19;;;;;;;21.30;14.18;;;19.70;99.90;;;;;;5019749;28;20245;-71
2023/08/24 07:48:44;;;;;;;18.83;13.57;;;19.80;99.90;;;;;;5019578;28;20034;-71
2023/08/24 07:51:10;;;;;;;18.30;13.73;;;19.90;99.90;;;;;;4984962;28;20439;-72
2023/08/24 07:53:35;;;;;;;23.45;14.10;;;19.90;99.90;;;;;;5023258;28;20033;-73
2023/08/24 07:56:01;;;;;;;19.63;13.55;;;20.00;99.90;;;;;;5020150;28;20526;-72
2023/08/24 07:58:27;;;;;;;23.80;14.80;;;20.10;99.90;;;;;;5024619;28;20041;-72
2023/08/24 08:00:53;;;;;;;20.35;14.32;;;20.10;99.90;;;;;;4996529;28;20053;-72
2023/08/24 08:03:19;;;;;;;16.55;13.68;;;20.20;99.90;;;;;;5020984;28;20044;-72
2023/08/24 08:05:47;;;;;;;20.25;13.23;;;20.30;99.90;;;;;;4999596;28;20045;-72
2023/08/24 08:08:16;;;;;;;22.08;14.15;;;20.40;99.90;;;;;;4999627;28;20407;-73
2023/08/24 08:10:42;;;;;;;27.55;15.15;;;20.50;99.90;;;;;;4998278;28;20090;-74
2023/08/24 08:13:10;;;;;;;21.80;14.73;;;20.50;99.90;;;;;;4994062;28;20048;-72
2023/08/24 08:15:38;;;;;;;22.80;14.57;;;20.70;99.90;;;;;;5009199;28;20124;-71
2023/08/24 08:18:04;;;;;;;18.90;14.02;;;20.70;99.90;;;;;;5019428;28;20112;-72
2023/08/24 08:20:30;;;;;;;22.83;14.60;;;20.80;99.90;;;;;;4997520;28;20144;-71
2023/08/24 08:22:56;;;;;;;17.17;13.88;;;20.90;99.90;;;;;;4998355;28;20571;-71
2023/08/24 08:25:22;;;;;;;20.27;14.75;;;21.00;99.90;;;;;;4998060;28;20125;-71
2023/08/24 08:27:49;;;;;;;19.65;15.02;;;21.00;99.90;;;;;;5021393;28;20188;-70
2023/08/24 08:30:15;;;;;;;25.60;15.68;;;21.10;99.90;;;;;;5024635;28;20035;-70
2023/08/24 08:32:41;;;;;;;22.80;14.95;;;21.20;99.90;;;;;;5016563;28;20042;-69
2023/08/24 08:35:08;;;;;;;20.23;14.27;;;21.30;99.90;;;;;;5000028;28;20095;-69
2023/08/24 08:37:33;;;;;;;20.88;15.50;;;21.40;99.90;;;;;;5007590;28;20049;-69
2023/08/24 08:39:59;;;;;;;25.92;15.32;;;21.50;99.90;;;;;;5006870;28;20053;-69
2023/08/24 08:42:25;;;;;;;22.35;15.70;;;21.60;99.90;;;;;;5002012;28;20104;-70
2023/08/24 08:44:54;;;;;;;22.45;15.35;;;21.80;99.90;;;;;;5009899;28;20128;-69
2023/08/24 08:47:21;;;;;;;26.77;16.35;;;22.00;99.90;;;;;;5025749;28;20143;-69
2023/08/24 08:49:48;;;;;;;22.30;15.20;;;22.10;99.90;;;;;;5020361;28;20104;-69
2023/08/24 08:52:14;;;;;;;19.83;14.63;;;22.30;99.90;;;;;;5027515;28;20037;-69
2023/08/24 08:54:40;;;;;;;23.13;14.68;;;22.30;99.90;;;;;;5017133;28;20040;-69
2023/08/24 08:57:06;;;;;;;21.75;15.35;;;22.40;99.90;;;;;;5030574;28;20049;-69
2023/08/24 08:59:33;;;;;;;20.23;15.30;;;22.60;99.90;;;;;;5023757;28;20030;-69
2023/08/24 09:02:01;;;;;;;18.80;14.18;;;22.80;99.90;;;;;;5015310;28;20045;-69
2023/08/24 09:04:33;;;;;;;19.55;14.00;;;22.90;99.90;;;;;;5034985;28;20083;-69
2023/08/24 09:07:03;;;;;;;21.67;14.32;;;23.10;99.90;;;;;;5008940;28;20060;-69
2023/08/24 09:09:29;;;;;;;17.67;13.93;;;23.20;99.90;;;;;;5016500;28;20037;-69
2023/08/24 09:11:55;;;;;;;17.58;13.60;;;23.40;99.90;;;;;;5034138;28;20359;-69
2023/08/24 09:14:21;;;;;;;22.20;13.88;;;23.60;99.90;;;;;;5007960;28;20029;-69
2023/08/24 09:16:47;;;;;;;19.27;13.55;;;23.70;99.90;;;;;;5029048;28;20087;-69
2023/08/24 09:19:13;;;;;;;18.25;13.20;;;23.70;99.90;;;;;;5046640;28;20040;-69
2023/08/24 09:21:39;;;;;;;17.35;13.45;;;23.80;99.90;;;;;;5036236;28;20051;-69
2023/08/24 09:24:06;;;;;;;18.45;13.23;;;23.90;99.90;;;;;;5022751;28;20029;-70
2023/08/24 09:26:34;;;;;;;15.80;12.63;;;24.10;99.90;;;;;;4996845;28;20132;-69
2023/08/24 09:29:01;;;;;;;16.10;11.80;;;24.10;99.90;;;;;;5015678;28;20037;-69
2023/08/24 09:31:39;;;;;;;17.42;12.75;;;24.20;99.90;;;;;;5028174;28;20107;-69
2023/08/24 09:34:06;;;;;;;18.52;12.80;;;24.30;99.90;;;;;;5011652;28;20487;-67
2023/08/24 09:36:36;;;;;;;16.90;12.20;;;24.50;99.90;;;;;;5033791;28;20033;-67
2023/08/24 09:39:06;;;;;;;16.02;12.65;;;24.70;99.90;;;;;;5015805;28;20050;-67
2023/08/24 09:41:44;;;;;;;14.27;12.13;;;24.80;99.90;;;;;;5019890;28;20427;-67
2023/08/24 09:44:11;;;;;;;19.77;12.90;;;24.80;99.90;;;;;;5025785;28;20537;-67
2023/08/24 09:46:38;;;;;;;16.10;13.05;;;24.80;99.90;;;;;;5033517;28;20448;-67
2023/08/24 09:49:08;;;;;;;16.75;12.60;;;24.90;99.90;;;;;;5017982;28;20104;-68
2023/08/24 09:51:35;;;;;;;;;;;24.80;99.90;;;;;;5011435;28;20042;-68
2023/08/24 09:54:08;;;;;;;17.67;13.25;;;24.70;99.90;;;;;;5015804;28;19956;-69
2023/08/24 09:56:37;;;;;;;15.93;12.98;;;24.70;99.90;;;;;;5029892;28;20048;-68
2023/08/24 09:59:14;;;;;;;18.15;13.68;;;24.60;99.90;;;;;;5008958;28;20073;-69
2023/08/24 10:01:44;;;;;;;18.45;13.82;;;24.60;99.90;;;;;;5008349;28;20045;-70
2023/08/24 10:04:12;;;;;;;19.63;13.80;;;24.60;99.90;;;;;;4995878;28;20125;-70
2023/08/24 10:06:39;;;;;;;16.95;13.38;;;24.50;99.90;;;;;;5027722;28;20042;-70
2023/08/24 10:09:08;;;;;;;16.75;13.15;;;24.50;99.90;;;;;;5032685;28;20565;-69
2023/08/24 10:11:39;;;;;;;16.55;13.25;;;24.40;99.90;;;;;;5016086;28;20041;-67
2023/08/24 10:14:23;;;;;;;16.75;14.63;;;24.40;99.90;;;;;;5024335;28;20034;-68
2023/08/24 10:16:52;;;;;;;15.60;13.98;;;24.40;99.90;;;;;;5032571;28;20053;-68
2023/08/24 10:19:19;;;;;;;19.50;14.63;;;24.40;99.90;;;;;;5015235;28;20041;-69
2023/08/24 10:21:46;;;;;;;15.60;13.80;;;24.30;99.90;;;;;;5021477;28;20451;-67
2023/08/24 10:24:12;;;;;;;17.65;13.80;;;24.30;99.90;;;;;;5011612;28;20049;-69
2023/08/24 10:26:39;;;;;;;16.92;15.02;;;24.30;99.90;;;;;;5029321;28;20042;-68
2023/08/24 10:29:06;;;;;;;17.42;14.95;;;24.20;99.90;;;;;;5020488;28;20048;-69
2023/08/24 10:31:33;;;;;;;17.30;15.50;;;24.20;99.90;;;;;;5021967;28;20061;-69
2023/08/24 10:34:00;;;;;;;18.08;14.85;;;24.20;99.90;;;;;;5005909;28;20049;-69
2023/08/24 10:36:26;;;;;;;19.85;15.80;;;24.10;99.90;;;;;;5022988;28;20496;-69
2023/08/24 10:38:57;;;;;;;19.10;15.80;;;24.10;99.90;;;;;;5023582;28;20051;-69
2023/08/24 10:41:26;;;;;;;18.98;15.48;;;24.10;99.90;;;;;;5003939;28;20045;-69
2023/08/24 10:44:03;;;;;;;19.48;16.45;;;24.10;99.90;;;;;;5020117;28;20121;-69
2023/08/24 10:46:35;;;;;;;20.83;16.15;;;24.10;99.90;;;;;;5020361;28;20046;-67
2023/08/24 10:49:04;;;;;;;18.77;15.90;;;24.10;99.90;;;;;;5005563;28;20050;-68
2023/08/24 10:51:31;;;;;;;21.10;16.05;;;24.10;99.90;;;;;;5023419;28;20041;-68
2023/08/24 10:53:59;;;;;;;22.13;15.48;;;24.10;99.90;;;;;;5000168;28;20090;-68
2023/08/24 10:56:38;;;;;;;17.52;15.75;;;24.20;99.90;;;;;;5027072;28;20383;-69
2023/08/24 10:59:15;;;;;;;21.95;15.38;;;24.30;99.90;;;;;;5031984;28;20391;-69
2023/08/24 11:01:53;;;;;;;18.35;14.70;;;24.40;99.90;;;;;;5029796;28;20091;-69
2023/08/24 11:04:19;;;;;;;17.60;14.40;;;24.50;99.90;;;;;;5008334;28;20128;-69
2023/08/24 11:06:59;;;;;;;17.88;15.60;;;24.70;99.90;;;;;;5022984;28;20152;-67
2023/08/24 11:09:27;;;;;;;20.27;15.32;;;24.80;99.90;;;;;;5027697;28;20045;-69
2023/08/24 11:11:57;;;;;;;18.50;13.45;;;25.00;99.90;;;;;;5001761;28;20053;-70
2023/08/24 11:14:26;;;;;;;20.55;14.40;;;25.30;99.90;;;;;;5017971;28;20100;-70
2023/08/24 11:16:52;;;;;;;18.45;14.20;;;25.40;99.90;;;;;;5029769;28;20623;-70
2023/08/24 11:19:18;;;;;;;17.45;13.05;;;25.50;99.90;;;;;;5006762;28;20045;-72
2023/08/24 11:21:45;;;;;;;14.93;13.35;;;25.60;99.90;;;;;;5020444;28;20115;-68
2023/08/24 11:24:16;;;;;;;21.40;13.23;;;25.70;99.90;;;;;;5006269;28;20038;-69
2023/08/24 11:26:47;;;;;;;;;;;25.80;99.90;;;;;;5026803;28;20041;-69
2023/08/24 11:29:15;;;;;;;17.52;12.25;;;25.70;99.90;;;;;;5016528;28;19917;-69
2023/08/24 11:31:41;;;;;;;13.75;11.30;;;25.70;99.90;;;;;;5022364;28;20026;-69
2023/08/24 11:34:07;;;;;;;15.20;11.77;;;25.70;99.90;;;;;;5020545;28;20100;-71
2023/08/24 11:37:02;;;;;;;13.80;11.45;;;25.70;99.90;;;;;;5011318;28;20080;-71
2023/08/24 11:39:32;;;;;;;16.48;11.82;;;25.70;99.90;;;;;;5014787;28;20515;-71
2023/08/24 11:42:05;;;;;;;14.52;12.45;;;25.80;99.90;;;;;;5022290;28;20037;-69
2023/08/24 11:44:49;;;;;;;15.68;12.60;;;25.90;99.90;;;;;;5017417;28;20072;-70
2023/08/24 11:47:15;;;;;;;18.15;13.00;;;26.00;99.90;;;;;;5009242;28;20037;-71
2023/08/24 11:49:41;;;;;;;17.35;13.02;;;26.10;99.90;;;;;;5043454;28;20041;-71
2023/08/24 11:52:08;;;;;;;20.55;12.27;;;26.10;99.90;;;;;;5028040;28;20144;-69
2023/08/24 11:54:38;;;;;;;17.13;13.30;;;26.10;99.90;;;;;;5000848;28;20080;-71
2023/08/24 11:57:06;;;;;;;14.52;12.48;;;26.10;99.90;;;;;;5020408;28;20033;-70
2023/08/24 11:59:32;;;;;;;17.13;13.30;;;26.00;99.90;;;;;;5008204;28;20164;-68
2023/08/24 12:01:58;;;;;;;18.27;13.48;;;25.90;99.90;;;;;;5039557;28;20148;-69
2023/08/24 12:04:24;;;;;;;14.82;12.85;;;25.80;99.90;;;;;;5016875;28;20037;-68
2023/08/24 12:06:50;;;;;;;18.20;12.75;;;25.70;99.90;;;;;;5003562;28;20045;-69
2023/08/24 12:09:16;;;;;;;20.27;13.15;;;25.60;99.90;;;;;;5026217;28;20512;-67
2023/08/24 12:11:41;;;;;;;17.88;11.55;;;25.50;99.90;;;;;;5033726;28;20042;-68
2023/08/24 12:14:09;;;;;;;18.25;12.05;;;25.40;99.90;;;;;;5030042;28;20033;-68
2023/08/24 12:16:35;;;;;;;14.95;11.48;;;25.40;99.90;;;;;;5017677;28;20065;-68
2023/08/24 12:19:05;;;;;;;14.88;11.98;;;25.40;99.90;;;;;;5028848;28;20116;-68
2023/08/24 12:21:31;;;;;;;15.13;11.82;;;25.50;99.90;;;;;;5028787;28;20038;-68
2023/08/24 12:24:01;;;;;;;14.55;12.02;;;25.70;99.90;;;;;;5034555;28;20053;-71
2023/08/24 12:26:27;;;;;;;;;;;25.80;99.90;;;;;;5025757;28;20041;-71
2023/08/24 12:28:55;;;;;;;14.93;12.55;;;26.10;99.90;;;;;;5013545;28;19970;-71
2023/08/24 12:31:26;;;;;;;15.18;11.73;;;26.20;99.90;;;;;;5028162;28;20040;-71
2023/08/24 12:34:04;;;;;;;17.08;11.32;;;26.40;99.90;;;;;;5024849;28;20379;-71